createdAt,value
2022-10-18T00:00:00.711Z,17.18
2022-10-18T00:02:27.431Z,17.10
2022-10-18T00:04:54.049Z,16.99
2022-10-18T00:07:20.584Z,16.98
2022-10-18T00:09:47.136Z,16.95
2022-10-18T00:12:13.755Z,16.99
2022-10-18T00:14:40.332Z,16.85
2022-10-18T00:17:06.897Z,16.86
2022-10-18T00:19:33.473Z,16.86
2022-10-18T00:22:00.102Z,16.89
2022-10-18T00:24:26.675Z,16.91
2022-10-18T00:26:53.247Z,16.95
2022-10-18T00:29:19.927Z,16.95
2022-10-18T00:31:46.607Z,16.93
2022-10-18T00:34:15.089Z,16.97
2022-10-18T00:36:42.673Z,17.03
2022-10-18T00:39:12.148Z,17.10
2022-10-18T00:41:38.714Z,17.10
2022-10-18T00:44:05.219Z,17.04
2022-10-18T00:46:34.177Z,16.97
2022-10-18T00:49:04.434Z,16.93
2022-10-18T00:51:40.448Z,16.87
2022-10-18T00:54:07.137Z,16.86
2022-10-18T00:56:34.172Z,16.87
2022-10-18T00:59:00.871Z,16.92
2022-10-18T01:01:28.578Z,16.92
2022-10-18T01:03:56.287Z,16.90
2022-10-18T01:06:22.957Z,16.90
2022-10-18T01:09:07.484Z,16.87
2022-10-18T01:12:09.461Z,16.83
2022-10-18T01:14:45.549Z,16.80
2022-10-18T01:17:18.511Z,16.82
2022-10-18T01:19:57.247Z,16.80
2022-10-18T01:22:28.465Z,16.79
2022-10-18T01:25:18.399Z,16.80
2022-10-18T01:27:50.478Z,16.80
2022-10-18T01:30:41.955Z,16.86
2022-10-18T01:33:22.240Z,16.79
2022-10-18T01:35:57.500Z,16.75
2022-10-18T01:38:25.773Z,16.79
2022-10-18T01:40:53.086Z,16.70
2022-10-18T01:43:21.843Z,16.73
2022-10-18T01:45:48.976Z,16.70
2022-10-18T01:48:16.856Z,16.72
2022-10-18T01:50:43.444Z,16.83
2022-10-18T01:53:23.232Z,16.83
2022-10-18T01:56:07.780Z,16.78
2022-10-18T01:58:45.320Z,16.86
2022-10-18T02:01:29.919Z,16.92
2022-10-18T02:03:59.542Z,16.85
2022-10-18T02:06:30.037Z,16.84
2022-10-18T02:09:04.907Z,16.84
2022-10-18T02:11:32.502Z,16.80
2022-10-18T02:14:10.985Z,16.81
2022-10-18T02:16:38.529Z,16.85
2022-10-18T02:19:08.848Z,16.77
2022-10-18T02:21:36.076Z,16.75
2022-10-18T02:24:03.012Z,16.75
2022-10-18T02:26:29.948Z,16.79
2022-10-18T02:28:56.596Z,16.87
2022-10-18T02:31:30.951Z,16.80
2022-10-18T02:34:20.894Z,16.83
2022-10-18T02:36:51.748Z,16.85
2022-10-18T02:39:22.254Z,16.94
2022-10-18T02:41:49.066Z,16.94
2022-10-18T02:44:15.701Z,16.99
2022-10-18T02:46:42.725Z,16.93
2022-10-18T02:49:09.282Z,16.95
2022-10-18T02:51:35.875Z,16.99
2022-10-18T02:54:02.548Z,16.94
2022-10-18T02:56:29.462Z,16.94
2022-10-18T02:58:56.169Z,16.92
2022-10-18T03:01:22.850Z,16.94
2022-10-18T03:03:49.855Z,16.97
2022-10-18T03:06:16.405Z,17.01
2022-10-18T03:08:43.037Z,17.11
2022-10-18T03:11:09.631Z,17.10
2022-10-18T03:13:36.253Z,17.06
2022-10-18T03:16:02.823Z,17.09
2022-10-18T03:18:29.493Z,17.10
2022-10-18T03:20:56.043Z,17.07
2022-10-18T03:23:22.604Z,17.06
2022-10-18T03:25:49.265Z,17.09
2022-10-18T03:28:15.968Z,17.09
2022-10-18T03:30:42.547Z,17.09
2022-10-18T03:33:09.117Z,17.07
2022-10-18T03:35:35.716Z,17.10
2022-10-18T03:38:02.423Z,17.10
2022-10-18T03:40:29.053Z,17.13
2022-10-18T03:42:55.641Z,17.10
2022-10-18T03:45:22.276Z,17.03
2022-10-18T03:47:48.873Z,16.97
2022-10-18T03:50:15.583Z,16.99
2022-10-18T03:52:42.175Z,17.00
2022-10-18T03:55:09.016Z,16.99
2022-10-18T03:57:35.656Z,17.02
2022-10-18T04:00:02.248Z,16.97
2022-10-18T04:02:28.987Z,16.99
2022-10-18T04:04:55.678Z,16.97
2022-10-18T04:07:22.197Z,17.01
2022-10-18T04:09:48.799Z,16.99
2022-10-18T04:12:15.341Z,16.91
2022-10-18T04:14:41.968Z,16.87
2022-10-18T04:17:08.736Z,16.90
2022-10-18T04:19:35.313Z,16.88
2022-10-18T04:22:01.945Z,16.97
2022-10-18T04:24:28.515Z,16.97
2022-10-18T04:26:55.085Z,16.97
2022-10-18T04:29:21.721Z,17.03
2022-10-18T04:31:48.324Z,17.02
2022-10-18T04:34:14.937Z,17.06
2022-10-18T04:36:41.564Z,17.00
2022-10-18T04:39:08.109Z,17.01
2022-10-18T04:41:34.832Z,17.08
2022-10-18T04:44:01.369Z,17.03
2022-10-18T04:46:27.961Z,17.03
2022-10-18T04:51:30.271Z,16.94
2022-10-18T04:53:57.157Z,16.97
2022-10-18T04:56:23.778Z,17.00
2022-10-18T04:58:53.064Z,16.98
2022-10-18T05:01:20.092Z,17.00
2022-10-18T05:03:53.198Z,16.94
2022-10-18T05:06:20.300Z,16.99
2022-10-18T05:08:46.946Z,16.92
2022-10-18T05:11:13.606Z,16.87
2022-10-18T05:13:40.152Z,16.89
2022-10-18T05:16:07.201Z,16.89
2022-10-18T05:18:33.790Z,16.97
2022-10-18T05:21:00.400Z,16.95
2022-10-18T05:23:27.115Z,16.87
2022-10-18T05:25:53.976Z,16.78
2022-10-18T05:28:38.679Z,16.77
2022-10-18T05:31:07.872Z,16.73
2022-10-18T05:33:35.976Z,16.77
2022-10-18T05:36:02.570Z,16.79
2022-10-18T05:38:31.208Z,16.74
2022-10-18T05:40:58.928Z,16.68
2022-10-18T05:43:29.072Z,16.70
2022-10-18T05:45:55.876Z,16.77
2022-10-18T05:48:22.635Z,16.72
2022-10-18T05:50:49.198Z,16.76
2022-10-18T05:53:35.738Z,16.82
2022-10-18T05:56:08.607Z,16.73
2022-10-18T05:58:35.469Z,16.55
2022-10-18T06:01:03.741Z,16.55
2022-10-18T06:03:36.469Z,16.58
2022-10-18T06:06:06.370Z,16.60
2022-10-18T06:08:33.235Z,16.45
2022-10-18T06:10:59.978Z,16.52
2022-10-18T06:13:31.073Z,16.67
2022-10-18T06:15:59.154Z,16.70
2022-10-18T06:18:25.843Z,16.73
2022-10-18T06:20:59.475Z,16.77
2022-10-18T06:23:28.085Z,16.68
2022-10-18T06:25:58.829Z,16.72
2022-10-18T06:28:25.433Z,16.80
2022-10-18T06:30:52.089Z,16.85
2022-10-18T06:33:18.748Z,16.86
2022-10-18T06:35:54.801Z,16.83
2022-10-18T06:38:21.350Z,16.84
2022-10-18T06:40:53.650Z,16.81
2022-10-18T06:43:21.490Z,16.79
2022-10-18T06:45:49.369Z,16.80
2022-10-18T06:48:16.659Z,16.85
2022-10-18T06:51:03.975Z,16.79
2022-10-18T06:53:43.681Z,16.79
2022-10-18T06:56:23.861Z,16.79
2022-10-18T06:58:53.563Z,16.80
2022-10-18T07:01:20.814Z,16.70
2022-10-18T07:03:48.692Z,16.75
2022-10-18T07:06:17.827Z,16.67
2022-10-18T07:08:44.955Z,16.62
2022-10-18T07:11:16.785Z,16.72
2022-10-18T07:13:43.401Z,16.74
2022-10-18T07:16:14.265Z,16.77
2022-10-18T07:18:49.704Z,16.88
2022-10-18T07:21:18.425Z,16.88
2022-10-18T07:23:48.372Z,16.90
2022-10-18T07:26:25.343Z,16.96
2022-10-18T07:28:55.488Z,16.89
2022-10-18T07:31:22.948Z,16.88
2022-10-18T07:33:49.675Z,16.88
2022-10-18T07:36:16.669Z,16.86
2022-10-18T07:38:43.459Z,16.89
2022-10-18T07:41:11.937Z,16.92
2022-10-18T07:43:42.085Z,16.85
2022-10-18T07:46:08.769Z,16.81
2022-10-18T07:48:35.341Z,16.86
2022-10-18T07:51:02.692Z,16.94
2022-10-18T07:53:29.671Z,16.94
2022-10-18T07:56:02.435Z,16.91
2022-10-18T07:58:32.632Z,16.85
2022-10-18T08:01:07.256Z,16.80
2022-10-18T08:03:34.413Z,16.68
2022-10-18T08:06:01.411Z,16.71
2022-10-18T08:08:28.477Z,16.70
2022-10-18T08:10:55.105Z,16.69
2022-10-18T08:13:21.845Z,16.75
2022-10-18T08:15:48.519Z,16.61
2022-10-18T08:18:15.250Z,16.55
2022-10-18T08:20:45.785Z,16.52
2022-10-18T08:23:12.444Z,16.48
2022-10-18T08:25:39.191Z,16.49
2022-10-18T08:28:06.824Z,16.55
2022-10-18T08:30:38.508Z,16.65
2022-10-18T08:33:05.230Z,16.60
2022-10-18T08:35:32.157Z,16.63
2022-10-18T08:38:02.265Z,16.59
2022-10-18T08:40:28.971Z,16.61
2022-10-18T08:43:21.721Z,16.67
2022-10-18T08:45:49.956Z,16.67
2022-10-18T08:48:22.047Z,16.66
2022-10-18T08:50:50.044Z,16.69
2022-10-18T08:53:21.058Z,16.70
2022-10-18T08:55:54.641Z,16.73
2022-10-18T08:58:27.038Z,16.66
2022-10-18T09:01:16.067Z,16.60
2022-10-18T09:03:45.815Z,16.50
2022-10-18T09:06:23.710Z,16.48
2022-10-18T09:09:12.090Z,16.56
2022-10-18T09:11:38.834Z,16.55
2022-10-18T09:14:46.091Z,16.63
2022-10-18T09:17:16.240Z,16.73
2022-10-18T09:20:07.594Z,16.68
2022-10-18T09:22:55.512Z,16.56
2022-10-18T09:25:46.364Z,16.70
2022-10-18T09:28:36.832Z,16.80
2022-10-18T09:31:22.968Z,16.88
2022-10-18T09:33:56.828Z,16.93
2022-10-18T09:36:25.838Z,16.92
2022-10-18T09:39:11.446Z,16.78
2022-10-18T09:41:42.762Z,16.74
2022-10-18T09:44:09.310Z,16.76
2022-10-18T09:46:41.352Z,16.83
2022-10-18T09:49:18.663Z,16.77
2022-10-18T09:51:45.914Z,16.93
2022-10-18T09:54:18.508Z,16.82
2022-10-18T09:57:06.270Z,16.96
2022-10-18T09:59:42.549Z,17.01
2022-10-18T10:02:23.400Z,17.14
2022-10-18T10:04:51.241Z,17.28
2022-10-18T10:07:20.515Z,17.57
2022-10-18T10:10:13.573Z,17.67
2022-10-18T10:12:41.026Z,17.58
2022-10-18T10:15:08.960Z,17.63
2022-10-18T10:17:35.996Z,17.39
2022-10-18T10:20:24.781Z,17.42
2022-10-18T10:22:52.130Z,17.47
2022-10-18T10:25:38.991Z,17.82
2022-10-18T10:28:14.060Z,18.42
2022-10-18T10:30:40.729Z,18.86
2022-10-18T10:33:09.976Z,18.68
2022-10-18T10:35:53.155Z,18.70
2022-10-18T10:38:33.464Z,19.36
2022-10-18T10:41:00.152Z,20.15
2022-10-18T10:43:39.153Z,20.63
2022-10-18T10:46:08.836Z,20.70
2022-10-18T10:49:09.523Z,20.83
2022-10-18T10:51:41.408Z,20.98
2022-10-18T10:54:18.731Z,20.80
2022-10-18T10:56:55.792Z,21.00
2022-10-18T10:59:24.144Z,20.46
2022-10-18T11:02:19.192Z,20.12
2022-10-18T11:04:47.570Z,20.02
2022-10-18T11:07:42.191Z,19.80
2022-10-18T11:10:12.420Z,19.29
2022-10-18T11:13:03.124Z,18.94
2022-10-18T11:15:41.773Z,18.90
2022-10-18T11:18:14.768Z,18.64
2022-10-18T11:20:41.577Z,18.57
2022-10-18T11:23:15.820Z,18.43
2022-10-18T11:26:07.877Z,18.55
2022-10-18T11:28:55.862Z,18.57
2022-10-18T11:31:33.004Z,18.64
2022-10-18T11:34:22.383Z,18.80
2022-10-18T11:37:22.579Z,19.60
2022-10-18T11:39:43.336Z,20.79
2022-10-18T11:42:20.808Z,21.51
2022-10-18T11:44:56.455Z,22.04
2022-10-18T11:47:38.751Z,21.89
2022-10-18T11:50:26.815Z,21.60
2022-10-18T11:53:27.803Z,20.90
2022-10-18T11:56:12.125Z,20.57
2022-10-18T11:58:44.741Z,20.31
2022-10-18T12:01:33.676Z,20.57
2022-10-18T12:04:15.134Z,20.85
2022-10-18T12:06:43.485Z,21.15
2022-10-18T12:09:38.169Z,21.18
2022-10-18T12:12:10.883Z,20.96
2022-10-18T12:14:41.879Z,20.75
2022-10-18T12:17:41.671Z,20.45
2022-10-18T12:20:33.490Z,20.60
2022-10-18T12:23:01.401Z,20.55
2022-10-18T12:25:34.514Z,20.34
2022-10-18T12:28:43.378Z,20.46
2022-10-18T12:31:19.107Z,20.73
2022-10-18T12:33:49.594Z,20.84
2022-10-18T12:36:36.797Z,20.79
2022-10-18T12:39:05.840Z,20.76
2022-10-18T12:41:34.142Z,20.69
2022-10-18T12:44:07.621Z,20.72
2022-10-18T12:46:55.580Z,20.50
2022-10-18T12:49:30.283Z,20.20
2022-10-18T12:51:59.807Z,19.84
2022-10-18T12:54:38.927Z,19.76
2022-10-18T12:57:07.259Z,19.70
2022-10-18T12:59:34.241Z,19.99
2022-10-18T13:02:00.869Z,20.08
2022-10-18T13:04:27.495Z,20.02
2022-10-18T13:07:14.334Z,20.12
2022-10-18T13:09:44.637Z,19.99
2022-10-18T13:12:11.445Z,20.09
2022-10-18T13:15:24.010Z,20.40
2022-10-18T13:17:59.053Z,20.83
2022-10-18T13:20:38.447Z,20.89
2022-10-18T13:23:38.155Z,20.87
2022-10-18T13:26:20.237Z,20.70
2022-10-18T13:29:05.197Z,20.27
2022-10-18T13:31:42.805Z,20.43
2022-10-18T13:34:24.189Z,20.48
2022-10-18T13:37:02.645Z,20.57
2022-10-18T13:39:30.047Z,20.45
2022-10-18T13:41:57.722Z,20.43
2022-10-18T13:44:28.790Z,20.82
2022-10-18T13:46:55.321Z,20.86
2022-10-18T13:49:31.053Z,20.82
2022-10-18T13:52:16.102Z,20.63
2022-10-18T13:55:07.269Z,20.31
2022-10-18T13:57:48.241Z,20.26
2022-10-18T14:00:30.112Z,20.06
2022-10-18T14:03:57.979Z,20.11
2022-10-18T14:06:33.797Z,20.49
2022-10-18T14:12:35.144Z,21.40
2022-10-18T14:15:10.574Z,21.31
2022-10-18T14:17:45.313Z,21.38
2022-10-18T14:20:40.029Z,21.37
2022-10-18T14:23:24.559Z,21.81
2022-10-18T14:25:51.389Z,22.39
2022-10-18T14:28:47.958Z,22.21
2022-10-18T14:31:16.706Z,21.50
2022-10-18T14:33:54.974Z,21.12
2022-10-18T14:36:36.025Z,21.25
2022-10-18T14:39:05.110Z,21.29
2022-10-18T14:41:32.995Z,21.56
2022-10-18T14:44:11.952Z,21.29
2022-10-18T14:47:15.295Z,21.72
2022-10-18T14:49:45.894Z,21.57
2022-10-18T14:52:14.689Z,21.20
2022-10-18T14:54:42.042Z,20.90
2022-10-18T14:57:17.091Z,20.93
2022-10-18T14:59:52.068Z,20.95
2022-10-18T15:02:26.518Z,20.57
2022-10-18T15:05:06.649Z,20.51
2022-10-18T15:07:38.409Z,20.38
2022-10-18T15:10:05.851Z,20.18
2022-10-18T15:12:41.024Z,20.16
2022-10-18T15:15:21.490Z,20.38
2022-10-18T15:17:48.678Z,20.56
2022-10-18T15:20:27.018Z,20.04
2022-10-18T15:22:54.436Z,19.68
2022-10-18T15:25:21.039Z,19.44
2022-10-18T15:27:53.572Z,19.27
2022-10-18T15:30:42.973Z,19.13
2022-10-18T15:33:20.964Z,19.16
2022-10-18T15:35:48.992Z,19.17
2022-10-18T15:38:29.526Z,19.17
2022-10-18T15:40:56.216Z,19.25
2022-10-18T15:43:28.553Z,19.10
2022-10-18T15:46:05.099Z,18.94
2022-10-18T15:48:41.076Z,19.09
2022-10-18T15:51:12.821Z,19.16
2022-10-18T15:53:45.169Z,19.15
2022-10-18T15:56:30.087Z,19.07
2022-10-18T15:58:58.252Z,19.03
2022-10-18T16:01:37.819Z,19.04
2022-10-18T16:04:20.377Z,19.07
2022-10-18T16:06:46.960Z,18.95
2022-10-18T16:09:16.806Z,18.75
2022-10-18T16:11:43.575Z,18.63
2022-10-18T16:14:10.243Z,18.68
2022-10-18T16:16:37.122Z,18.62
2022-10-18T16:19:03.877Z,18.63
2022-10-18T16:21:31.907Z,18.72
2022-10-18T16:23:58.815Z,18.62
2022-10-18T16:26:26.356Z,18.52
2022-10-18T16:28:54.100Z,18.52
2022-10-18T16:31:23.424Z,18.47
2022-10-18T16:33:51.059Z,18.42
2022-10-18T16:36:24.138Z,18.40
2022-10-18T16:38:51.395Z,18.47
2022-10-18T16:41:18.588Z,18.45
2022-10-18T16:43:46.595Z,18.13
2022-10-18T16:46:20.584Z,18.17
2022-10-18T16:48:48.510Z,18.21
2022-10-18T16:51:15.165Z,18.34
2022-10-18T16:53:42.056Z,18.33
2022-10-18T16:56:15.923Z,18.29
2022-10-18T16:58:42.641Z,18.25
2022-10-18T17:01:17.429Z,18.09
2022-10-18T17:03:44.657Z,17.95
2022-10-18T17:06:20.599Z,17.92
2022-10-18T17:08:47.439Z,17.86
2022-10-18T17:11:15.718Z,17.92
2022-10-18T17:13:42.630Z,17.86
2022-10-18T17:18:57.088Z,17.78
2022-10-18T17:21:24.756Z,17.85
2022-10-18T17:23:51.646Z,17.69
2022-10-18T17:26:29.738Z,17.57
2022-10-18T17:29:01.823Z,17.45
2022-10-18T17:31:29.580Z,17.40
2022-10-18T17:33:58.504Z,17.28
2022-10-18T17:36:25.182Z,17.29
2022-10-18T17:38:55.516Z,17.21
2022-10-18T17:41:22.397Z,17.20
2022-10-18T17:43:49.355Z,17.09
2022-10-18T17:46:17.891Z,17.07
2022-10-18T17:48:44.646Z,17.05
2022-10-18T17:51:13.738Z,17.10
2022-10-18T17:53:40.461Z,16.93
2022-10-18T17:56:12.865Z,16.90
2022-10-18T17:58:39.772Z,16.88
2022-10-18T18:01:10.510Z,16.95
2022-10-18T18:03:37.212Z,16.86
2022-10-18T18:06:19.873Z,16.84
2022-10-18T18:08:47.648Z,16.78
2022-10-18T18:11:14.394Z,16.68
2022-10-18T18:13:41.280Z,16.66
2022-10-18T18:16:16.731Z,16.61
2022-10-18T18:18:44.177Z,16.58
2022-10-18T18:21:11.278Z,16.63
2022-10-18T18:23:37.978Z,16.51
2022-10-18T18:26:04.797Z,16.54
2022-10-18T18:28:31.417Z,16.36
2022-10-18T18:30:58.117Z,16.31
2022-10-18T18:33:24.758Z,16.19
2022-10-18T18:35:56.458Z,16.10
2022-10-18T18:38:23.481Z,16.20
2022-10-18T18:40:50.100Z,16.27
2022-10-18T18:43:23.207Z,16.18
2022-10-18T18:45:51.745Z,16.19
2022-10-18T18:48:19.929Z,16.13
2022-10-18T18:50:51.347Z,16.23
2022-10-18T18:53:20.456Z,16.18
2022-10-18T18:55:48.537Z,16.27
2022-10-18T18:58:15.210Z,16.42
2022-10-18T19:00:47.931Z,16.54
2022-10-18T19:03:17.004Z,16.57
2022-10-18T19:05:43.714Z,16.59
2022-10-18T19:08:10.338Z,16.56
2022-10-18T19:10:36.948Z,16.61
2022-10-18T19:13:03.701Z,16.58
2022-10-18T19:15:30.366Z,16.53
2022-10-18T19:17:57.104Z,16.51
2022-10-18T19:20:23.703Z,16.43
2022-10-18T19:22:50.418Z,16.35
2022-10-18T19:25:17.119Z,16.40
2022-10-18T19:27:43.821Z,16.22
2022-10-18T19:30:11.679Z,16.29
2022-10-18T19:32:38.304Z,16.28
2022-10-18T19:35:05.332Z,16.19
2022-10-18T19:37:32.277Z,16.12
2022-10-18T19:39:59.624Z,16.12
2022-10-18T19:42:30.351Z,16.15
2022-10-18T19:44:57.933Z,16.14
2022-10-18T19:47:24.571Z,16.14
2022-10-18T19:49:52.898Z,16.15
2022-10-18T19:52:19.820Z,16.15
2022-10-18T19:54:48.797Z,15.96
2022-10-18T19:57:15.458Z,15.99
2022-10-18T19:59:42.175Z,15.95
2022-10-18T20:02:13.328Z,15.89
2022-10-18T20:04:40.132Z,15.92
2022-10-18T20:07:11.686Z,15.90
2022-10-18T20:09:39.724Z,15.83
2022-10-18T20:12:06.318Z,15.74
2022-10-18T20:14:32.864Z,15.73
2022-10-18T20:16:59.599Z,15.73
2022-10-18T20:19:28.851Z,15.59
2022-10-18T20:21:58.617Z,15.55
2022-10-18T20:24:25.363Z,15.45
2022-10-18T20:29:20.077Z,15.45
2022-10-18T20:31:47.657Z,15.36
2022-10-18T20:34:14.548Z,15.22
2022-10-18T20:36:41.278Z,15.15
2022-10-18T20:39:08.059Z,15.11
2022-10-18T20:41:38.149Z,15.01
2022-10-18T20:44:07.216Z,14.97
2022-10-18T20:46:35.995Z,14.97
2022-10-18T20:49:03.519Z,14.98
2022-10-18T20:51:30.559Z,14.96
2022-10-18T20:53:57.317Z,15.00
2022-10-18T20:56:26.801Z,15.14
2022-10-18T20:58:57.622Z,15.13
2022-10-18T21:01:26.867Z,15.05
2022-10-18T21:03:55.556Z,14.81
2022-10-18T21:06:25.017Z,14.81
2022-10-18T21:08:59.273Z,14.82
2022-10-18T21:11:27.280Z,14.88
2022-10-18T21:14:02.806Z,14.91
2022-10-18T21:16:30.928Z,14.95
2022-10-18T21:19:05.398Z,15.02
2022-10-18T21:21:32.468Z,15.12
2022-10-18T21:24:02.533Z,15.11
2022-10-18T21:26:35.811Z,14.88
2022-10-18T21:29:03.323Z,14.95
2022-10-18T21:31:34.254Z,14.87
2022-10-18T21:34:04.551Z,14.92
2022-10-18T21:36:33.787Z,14.91
2022-10-18T21:39:08.370Z,14.93
2022-10-18T21:41:35.349Z,14.82
2022-10-18T21:44:06.887Z,14.82
2022-10-18T21:46:37.471Z,14.76
2022-10-18T21:49:04.581Z,14.84
2022-10-18T21:51:34.703Z,14.79
2022-10-18T21:54:03.735Z,14.80
2022-10-18T21:56:33.139Z,14.77
2022-10-18T21:59:00.353Z,14.68
2022-10-18T22:01:36.627Z,14.60
2022-10-18T22:04:08.364Z,14.45
2022-10-18T22:06:36.474Z,14.47
2022-10-18T22:09:05.916Z,14.36
2022-10-18T22:11:36.003Z,14.50
2022-10-18T22:14:02.636Z,14.55
2022-10-18T22:16:29.288Z,14.50
2022-10-18T22:19:00.956Z,14.38
2022-10-18T22:21:28.408Z,14.40
2022-10-18T22:23:59.282Z,14.36
2022-10-18T22:26:37.884Z,14.41
2022-10-18T22:29:07.585Z,14.40
2022-10-18T22:31:36.664Z,14.38
2022-10-18T22:34:05.536Z,14.29
2022-10-18T22:36:33.023Z,14.27
2022-10-18T22:38:59.726Z,14.35
2022-10-18T22:41:26.479Z,14.29
2022-10-18T22:43:53.576Z,14.21
2022-10-18T22:46:20.729Z,14.15
2022-10-18T22:48:47.928Z,14.10
2022-10-18T22:51:14.548Z,14.07
2022-10-18T22:53:41.413Z,14.06
2022-10-18T22:56:10.391Z,13.93
2022-10-18T22:58:37.068Z,13.91
2022-10-18T23:01:12.616Z,13.90
2022-10-18T23:03:39.338Z,13.95
2022-10-18T23:06:20.975Z,13.87
2022-10-18T23:08:47.664Z,13.84
2022-10-18T23:11:14.479Z,13.63
2022-10-18T23:13:41.114Z,13.59
2022-10-18T23:16:08.010Z,13.42
2022-10-18T23:18:34.623Z,13.38
2022-10-18T23:21:10.223Z,13.46
2022-10-18T23:23:38.568Z,13.48
2022-10-18T23:26:07.537Z,13.56
2022-10-18T23:28:38.753Z,13.47
2022-10-18T23:31:14.669Z,13.50
2022-10-18T23:33:41.850Z,13.54
2022-10-18T23:36:08.919Z,13.51
2022-10-18T23:38:36.826Z,13.30
2022-10-18T23:41:04.470Z,13.29
2022-10-18T23:43:31.120Z,13.43
2022-10-18T23:45:57.764Z,13.50
2022-10-18T23:48:24.676Z,13.50
2022-10-18T23:50:51.473Z,13.40
2022-10-18T23:53:21.810Z,13.45
2022-10-18T23:55:56.618Z,13.45
2022-10-18T23:58:23.881Z,13.28
